Time;durP1;ratioP1;P1;durP2;ratioP2;P2;SDS_P1;SDS_P2;PMS_P1;PMS_P2;Temp;Humidity;BMP_temperature;BMP_pressure;BME280_temperature;BME280_humidity;BME280_pressure;Samples;Min_cycle;Max_cycle;Signal;HPM_P1;HPM_P2
2022/08/21 04:01:33;;;;;;;5.77;3.50;;;15.50;99.90;;;;;;5524278;23;20491;-75
2022/08/21 04:04:00;;;;;;;3.50;3.20;;;15.50;99.90;;;;;;5011880;28;20447;-75
2022/08/21 04:06:27;;;;;;;4.13;3.50;;;15.50;99.90;;;;;;5014065;28;20457;-75
2022/08/21 04:08:54;;;;;;;6.30;3.30;;;15.50;99.90;;;;;;5015999;28;20451;-75
2022/08/21 04:11:21;;;;;;;3.33;3.03;;;15.50;99.90;;;;;;5015775;28;20533;-75
2022/08/21 04:13:48;;;;;;;4.20;3.27;;;15.50;99.90;;;;;;5015796;28;20495;-75
2022/08/21 04:16:15;;;;;;;5.07;3.23;;;15.40;99.90;;;;;;5016395;28;20466;-75
2022/08/21 04:18:43;;;;;;;4.03;3.50;;;15.40;99.90;;;;;;5016382;28;20458;-75
2022/08/21 04:21:12;;;;;;;5.67;3.07;;;15.40;99.90;;;;;;5015792;28;20485;-75
2022/08/21 04:23:39;;;;;;;4.33;3.80;;;15.40;99.90;;;;;;5015891;28;20458;-75
2022/08/21 04:26:06;;;;;;;3.70;3.30;;;15.40;99.90;;;;;;5015611;28;20457;-75
2022/08/21 04:28:33;;;;;;;4.10;3.17;;;15.40;99.90;;;;;;5015707;28;20538;-75
2022/08/21 04:31:00;;;;;;;5.37;3.40;;;15.30;99.90;;;;;;5015856;28;20787;-75
2022/08/21 04:33:27;;;;;;;3.97;3.30;;;15.30;99.90;;;;;;5015335;28;20946;-75
2022/08/21 04:35:55;;;;;;;4.43;2.90;;;15.30;99.90;;;;;;5015377;28;20458;-75
2022/08/21 04:38:22;;;;;;;3.70;2.63;;;15.30;99.90;;;;;;5015442;28;20915;-75
2022/08/21 04:40:50;;;;;;;3.93;3.10;;;15.30;99.90;;;;;;5015427;28;20493;-75
2022/08/21 04:43:19;;;;;;;3.60;3.20;;;15.30;99.90;;;;;;5015576;28;20469;-75
2022/08/21 04:45:48;;;;;;;3.50;3.13;;;15.30;99.90;;;;;;5015173;28;20516;-75
2022/08/21 04:48:17;;;;;;;4.43;3.30;;;15.30;99.90;;;;;;5015821;28;20468;-75
2022/08/21 04:50:49;;;;;;;5.77;3.10;;;15.20;99.90;;;;;;5015114;28;20482;-75
2022/08/21 04:53:20;;;;;;;6.57;3.60;;;15.20;99.90;;;;;;5015136;28;20447;-75
2022/08/21 04:55:49;;;;;;;8.23;3.77;;;15.20;99.90;;;;;;5015132;28;20853;-75
2022/08/21 04:58:19;;;;;;;6.60;3.73;;;15.20;99.90;;;;;;5015098;28;20553;-75
2022/08/21 05:00:48;;;;;;;4.13;3.33;;;15.20;99.90;;;;;;5015732;28;20497;-77
2022/08/21 05:03:17;;;;;;;3.80;3.50;;;15.20;99.90;;;;;;5017928;28;20465;-77
2022/08/21 05:05:44;;;;;;;3.93;3.50;;;15.10;99.90;;;;;;5018037;28;20455;-77
2022/08/21 05:08:15;;;;;;;3.70;3.37;;;15.10;99.90;;;;;;5018216;28;20469;-77
2022/08/21 05:10:44;;;;;;;4.30;3.00;;;15.10;99.90;;;;;;5017322;28;20486;-76
2022/08/21 05:13:12;;;;;;;5.07;3.77;;;15.10;99.90;;;;;;5016762;28;20459;-77
2022/08/21 05:15:39;;;;;;;3.93;3.63;;;15.10;99.90;;;;;;5018195;28;20496;-77
2022/08/21 05:18:06;;;;;;;7.30;3.77;;;15.10;99.90;;;;;;5017858;28;20954;-76
2022/08/21 05:20:34;;;;;;;6.13;3.90;;;15.10;99.90;;;;;;5018624;28;20474;-77
2022/08/21 05:23:01;;;;;;;4.63;4.23;;;15.10;99.90;;;;;;5018362;28;20462;-77
2022/08/21 05:25:28;;;;;;;9.10;4.40;;;15.10;99.90;;;;;;5018415;28;20530;-77
2022/08/21 05:27:57;;;;;;;6.13;4.43;;;15.10;99.90;;;;;;5018868;28;20942;-77
2022/08/21 05:30:23;;;;;;;4.80;4.27;;;15.10;99.90;;;;;;5018668;28;20943;-77
2022/08/21 05:32:51;;;;;;;4.57;4.17;;;15.10;99.90;;;;;;5018394;28;20545;-77
2022/08/21 05:35:18;;;;;;;4.90;4.47;;;15.10;99.90;;;;;;5018874;28;20499;-77
2022/08/21 05:37:45;;;;;;;5.43;4.60;;;15.10;99.90;;;;;;5018907;28;20951;-77
2022/08/21 05:40:13;;;;;;;5.90;4.70;;;15.10;99.90;;;;;;5018510;28;20824;-77
2022/08/21 05:42:40;;;;;;;5.53;4.70;;;15.20;99.90;;;;;;5017928;28;20466;-76
2022/08/21 05:45:09;;;;;;;5.17;4.67;;;15.10;99.90;;;;;;5018283;28;20451;-77
2022/08/21 05:47:36;;;;;;;4.67;4.20;;;15.10;99.90;;;;;;5018186;28;20478;-77
2022/08/21 05:50:03;;;;;;;4.97;4.57;;;15.10;99.90;;;;;;5017512;28;20466;-77
2022/08/21 05:52:31;;;;;;;7.13;4.83;;;15.20;99.90;;;;;;5017643;28;20481;-77
2022/08/21 05:54:57;;;;;;;4.47;4.07;;;15.20;99.90;;;;;;5018120;28;20498;-77
2022/08/21 05:57:25;;;;;;;6.97;5.17;;;15.20;99.90;;;;;;5018257;28;20467;-77
2022/08/21 05:59:52;;;;;;;4.60;4.10;;;15.20;99.90;;;;;;5018219;28;20459;-77
2022/08/21 06:02:21;;;;;;;5.10;4.60;;;15.20;99.90;;;;;;5017457;28;20490;-77
2022/08/21 06:04:49;;;;;;;5.27;4.60;;;15.20;99.90;;;;;;5018455;28;20435;-77
2022/08/21 06:07:16;;;;;;;5.57;5.07;;;15.30;99.90;;;;;;5017937;28;20516;-77
2022/08/21 06:09:43;;;;;;;5.40;4.90;;;15.30;99.90;;;;;;5018663;28;20465;-78
2022/08/21 06:12:12;;;;;;;5.47;4.97;;;15.30;99.90;;;;;;5018747;28;20844;-77
2022/08/21 06:14:41;;;;;;;5.87;4.63;;;15.40;99.90;;;;;;5017732;28;20485;-77
2022/08/21 06:17:11;;;;;;;5.13;4.63;;;15.40;99.90;;;;;;5017885;28;20977;-77
2022/08/21 06:19:39;;;;;;;5.00;4.50;;;15.40;99.90;;;;;;5018394;28;20455;-77
2022/08/21 06:22:06;;;;;;;5.13;4.73;;;15.40;99.90;;;;;;5018472;28;20475;-77
2022/08/21 06:24:33;;;;;;;7.13;4.83;;;15.40;99.90;;;;;;5018013;28;20443;-77
2022/08/21 06:27:05;;;;;;;5.80;5.20;;;15.40;99.90;;;;;;5018229;28;20455;-76
2022/08/21 06:29:33;;;;;;;5.47;4.97;;;15.40;99.90;;;;;;5017021;28;20458;-77
2022/08/21 06:31:59;;;;;;;6.10;4.90;;;15.50;99.90;;;;;;5017912;28;20479;-77
2022/08/21 06:34:26;;;;;;;5.27;4.53;;;15.50;99.90;;;;;;5017724;28;20577;-77
2022/08/21 06:36:55;;;;;;;4.93;4.40;;;15.50;99.90;;;;;;5017895;28;20458;-77
2022/08/21 06:39:22;;;;;;;5.70;4.40;;;15.60;99.90;;;;;;5017865;28;20459;-77
2022/08/21 06:41:49;;;;;;;4.77;4.30;;;15.60;99.90;;;;;;5018015;28;20854;-77
2022/08/21 06:44:18;;;;;;;7.00;4.90;;;15.60;99.90;;;;;;5017874;28;20451;-77
2022/08/21 06:46:44;;;;;;;6.67;5.30;;;15.60;99.90;;;;;;5018337;28;20537;-77
2022/08/21 06:49:12;;;;;;;6.47;4.27;;;15.70;99.90;;;;;;5017608;28;20459;-77
2022/08/21 06:51:39;;;;;;;6.07;4.77;;;15.70;99.90;;;;;;5018020;28;20579;-77
2022/08/21 06:54:08;;;;;;;5.07;4.57;;;15.70;99.90;;;;;;5017837;28;20467;-77
2022/08/21 06:56:37;;;;;;;6.60;4.37;;;15.80;99.90;;;;;;5018378;28;20463;-77
2022/08/21 06:59:04;;;;;;;7.53;5.00;;;15.80;99.90;;;;;;5018073;28;21018;-77
2022/08/21 07:01:32;;;;;;;5.07;4.53;;;15.80;99.90;;;;;;5017875;28;20482;-77
2022/08/21 07:03:59;;;;;;;5.70;4.60;;;15.90;99.90;;;;;;5018354;28;20459;-77
2022/08/21 07:06:26;;;;;;;7.87;5.03;;;15.90;99.90;;;;;;5019086;28;20455;-78
2022/08/21 07:08:52;;;;;;;7.67;4.83;;;16.00;99.90;;;;;;5018917;28;20959;-78
2022/08/21 07:11:24;;;;;;;6.83;5.20;;;16.10;99.90;;;;;;5019151;28;20487;-78
2022/08/21 07:13:52;;;;;;;5.90;4.87;;;16.10;99.90;;;;;;5019113;28;20451;-77
2022/08/21 07:16:20;;;;;;;7.40;4.70;;;16.20;99.90;;;;;;5018872;28;20897;-77
2022/08/21 07:18:46;;;;;;;6.03;4.63;;;16.30;99.90;;;;;;5019297;28;20455;-77
2022/08/21 07:21:13;;;;;;;5.10;4.27;;;16.40;99.90;;;;;;5018671;28;20994;-77
2022/08/21 07:23:42;;;;;;;8.53;4.40;;;16.40;99.90;;;;;;5018956;28;20853;-78
2022/08/21 07:26:09;;;;;;;6.30;4.10;;;16.40;99.90;;;;;;5019122;28;20482;-77
2022/08/21 07:28:37;;;;;;;7.00;4.30;;;16.40;99.90;;;;;;5016464;28;20454;-78
2022/08/21 07:31:05;;;;;;;6.67;4.33;;;16.50;99.90;;;;;;5015621;28;20480;-77
2022/08/21 07:33:34;;;;;;;6.80;4.43;;;16.60;99.90;;;;;;5015605;28;21021;-77
2022/08/21 07:36:01;;;;;;;12.10;4.87;;;16.60;99.90;;;;;;5015668;28;20496;-77
2022/08/21 07:38:28;;;;;;;6.20;4.70;;;16.70;99.90;;;;;;5017394;28;20469;-78
2022/08/21 07:40:58;;;;;;;6.40;4.50;;;16.70;99.90;;;;;;5018699;28;20483;-77
2022/08/21 07:43:25;;;;;;;5.07;4.07;;;16.80;99.90;;;;;;5019170;28;20447;-78
2022/08/21 07:45:54;;;;;;;6.30;4.33;;;16.90;99.90;;;;;;5019471;28;20458;-78
2022/08/21 07:48:21;;;;;;;6.67;4.47;;;16.90;99.90;;;;;;5019787;28;20482;-77
2022/08/21 07:50:49;;;;;;;8.20;4.80;;;17.10;99.90;;;;;;5020179;28;20480;-78
2022/08/21 07:53:17;;;;;;;8.80;4.20;;;17.20;99.90;;;;;;5020064;28;20450;-79
2022/08/21 07:55:43;;;;;;;11.63;5.10;;;17.20;99.90;;;;;;5020244;28;20490;-79
2022/08/21 07:58:10;;;;;;;7.83;4.90;;;17.20;99.90;;;;;;5021438;28;20459;-79
2022/08/21 08:00:37;;;;;;;9.40;5.10;;;17.30;99.90;;;;;;5020525;28;20486;-78
2022/08/21 08:03:05;;;;;;;8.30;4.73;;;17.30;99.90;;;;;;5021303;28;20455;-79
2022/08/21 08:05:35;;;;;;;6.47;4.27;;;17.40;99.90;;;;;;5025747;28;20947;-78
2022/08/21 08:08:01;;;;;;;7.90;4.50;;;17.50;99.90;;;;;;5029975;28;20455;-78
2022/08/21 08:10:28;;;;;;;10.40;5.30;;;17.50;99.90;;;;;;5029425;28;20506;-77
2022/08/21 08:12:55;;;;;;;9.90;4.73;;;17.70;99.90;;;;;;5027868;28;20479;-79
2022/08/21 08:15:24;;;;;;;8.70;4.43;;;17.80;99.90;;;;;;5019637;28;20490;-79
2022/08/21 08:17:52;;;;;;;6.60;4.60;;;17.90;99.90;;;;;;5020981;28;20853;-79
2022/08/21 08:20:21;;;;;;;7.97;4.43;;;18.00;99.90;;;;;;5030541;28;20939;-78
2022/08/21 08:22:48;;;;;;;10.70;4.93;;;18.20;99.90;;;;;;5031534;28;20462;-78
2022/08/21 08:25:16;;;;;;;7.23;5.00;;;18.40;99.90;;;;;;5030874;28;20455;-78
2022/08/21 08:27:43;;;;;;;10.77;5.10;;;18.50;99.90;;;;;;5030980;28;20474;-79
2022/08/21 08:30:13;;;;;;;11.50;4.90;;;18.50;99.90;;;;;;5031027;28;20451;-79
2022/08/21 08:32:40;;;;;;;10.57;5.77;;;18.60;99.90;;;;;;5030710;28;20454;-78
2022/08/21 08:35:08;;;;;;;8.20;5.57;;;18.80;99.90;;;;;;5019311;28;20990;-79
2022/08/21 08:37:39;;;;;;;11.60;5.47;;;18.80;99.90;;;;;;5018602;28;20459;-80
2022/08/21 08:40:10;;;;;;;10.30;6.53;;;19.00;99.90;;;;;;5018457;28;20655;-79
2022/08/21 08:42:38;;;;;;;10.93;6.07;;;19.00;99.90;;;;;;5017419;28;20431;-79
2022/08/21 08:45:08;;;;;;;9.53;6.17;;;19.20;99.90;;;;;;5016726;28;20969;-78
2022/08/21 08:47:39;;;;;;;9.37;5.33;;;19.40;99.90;;;;;;5018015;28;20455;-78
2022/08/21 08:50:10;;;;;;;10.10;6.30;;;19.50;99.90;;;;;;5017857;28;20832;-79
2022/08/21 08:52:44;;;;;;;7.80;6.13;;;19.60;99.90;;;;;;5019299;28;20498;-78
2022/08/21 08:55:16;;;;;;;6.00;5.37;;;19.80;99.90;;;;;;5022531;28;20479;-80
2022/08/21 08:57:46;;;;;;;12.10;6.10;;;20.10;99.90;;;;;;5022648;28;20530;-79
2022/08/21 09:00:16;;;;;;;10.37;6.17;;;20.50;99.90;;;;;;5021558;28;20945;-80
2022/08/21 09:02:45;;;;;;;8.97;6.07;;;20.60;99.90;;;;;;5022232;28;20465;-79
2022/08/21 09:05:22;;;;;;;8.20;5.33;;;21.00;99.90;;;;;;5023539;28;20526;-80
2022/08/21 09:08:04;;;;;;;9.37;6.17;;;21.10;99.90;;;;;;5021669;28;20458;-80
2022/08/21 09:10:39;;;;;;;8.03;6.00;;;21.60;99.90;;;;;;5022464;28;20484;-79
2022/08/21 09:13:13;;;;;;;7.60;5.90;;;21.60;99.90;;;;;;5023194;28;20455;-80
2022/08/21 09:15:51;;;;;;;10.40;5.40;;;21.70;99.90;;;;;;5022323;28;20496;-80
2022/08/21 09:18:29;;;;;;;8.33;6.30;;;22.20;99.90;;;;;;5022789;28;20466;-79
2022/08/21 09:21:10;;;;;;;11.30;5.80;;;22.30;99.90;;;;;;5023059;28;20921;-79
2022/08/21 09:23:48;;;;;;;7.63;6.30;;;22.30;99.90;;;;;;5021848;28;20447;-80
2022/08/21 09:26:18;;;;;;;6.90;5.20;;;22.30;99.90;;;;;;5021253;28;20454;-80
2022/08/21 09:28:47;;;;;;;8.20;5.30;;;22.40;99.90;;;;;;5021923;28;20451;-80
2022/08/21 09:31:22;;;;;;;9.73;5.33;;;22.50;99.90;;;;;;5021986;28;20561;-80
2022/08/21 09:33:49;;;;;;;9.93;5.73;;;22.60;99.90;;;;;;5022416;28;20523;-80
2022/08/21 09:36:26;;;;;;;8.83;4.93;;;22.70;99.90;;;;;;5022079;28;20490;-80
2022/08/21 09:38:56;;;;;;;5.80;4.50;;;22.80;99.90;;;;;;5022001;28;20554;-80
2022/08/21 09:41:28;;;;;;;11.50;6.33;;;22.90;99.90;;;;;;5021885;28;21036;-80
2022/08/21 09:43:55;;;;;;;11.23;5.33;;;23.10;99.90;;;;;;5021614;28;20947;-80
2022/08/21 09:46:23;;;;;;;13.00;4.70;;;23.20;99.90;;;;;;5021944;28;20442;-80
2022/08/21 09:48:53;;;;;;;8.67;5.07;;;23.70;99.90;;;;;;5022194;28;20840;-80
2022/08/21 09:51:22;;;;;;;9.63;4.97;;;23.70;99.90;;;;;;5022435;28;20482;-80
2022/08/21 09:53:51;;;;;;;7.97;4.30;;;23.80;99.90;;;;;;5022889;28;20455;-80
2022/08/21 09:59:16;;;;;;;6.37;3.90;;;24.10;99.90;;;;;;5022608;28;20799;-80
2022/08/21 10:01:45;;;;;;;10.40;3.97;;;24.20;99.90;;;;;;5020837;28;20502;-79
2022/08/21 10:04:12;;;;;;;11.53;4.40;;;24.30;99.90;;;;;;5023420;28;20439;-80
2022/08/21 10:06:40;;;;;;;8.60;4.17;;;24.40;99.90;;;;;;5022500;28;20465;-80
2022/08/21 10:09:09;;;;;;;11.13;4.30;;;24.50;99.90;;;;;;5022711;28;20461;-80
2022/08/21 10:11:39;;;;;;;11.80;4.07;;;24.70;99.90;;;;;;5022024;28;20483;-80
2022/08/21 10:14:14;;;;;;;8.83;3.37;;;24.90;99.90;;;;;;5022556;28;20947;-79
2022/08/21 10:16:52;;;;;;;7.17;3.93;;;25.10;99.90;;;;;;5055262;22;20497;-75
2022/08/21 10:19:27;;;;;;;7.80;3.70;;;25.20;99.90;;;;;;5014172;28;20431;-72
2022/08/21 10:22:01;;;;;;;8.60;4.17;;;25.20;99.90;;;;;;5013616;28;21032;-73
2022/08/21 10:24:32;;;;;;;6.10;3.70;;;25.40;99.90;;;;;;5013200;28;20465;-75
2022/08/21 10:27:09;;;;;;;10.97;4.10;;;25.50;99.90;;;;;;4993742;28;20959;-73
2022/08/21 10:29:48;;;;;;;6.87;3.30;;;25.60;99.90;;;;;;4993890;28;20463;-73
2022/08/21 10:32:27;;;;;;;8.10;4.07;;;25.80;99.90;;;;;;4994273;28;20440;-73
2022/08/21 10:35:00;;;;;;;5.70;3.40;;;26.30;99.90;;;;;;4994831;28;20484;-73
2022/08/21 10:37:36;;;;;;;7.23;3.63;;;26.30;99.90;;;;;;4994051;28;21089;-73
2022/08/21 10:40:16;;;;;;;9.53;4.20;;;26.30;99.90;;;;;;4994516;28;20467;-73
2022/08/21 10:42:58;;;;;;;6.47;3.60;;;26.30;99.90;;;;;;4993943;28;20460;-73
2022/08/21 10:45:44;;;;;;;6.17;3.70;;;26.30;99.90;;;;;;4993042;28;20475;-73
2022/08/21 10:48:23;;;;;;;6.13;3.57;;;26.20;99.90;;;;;;4993655;28;20452;-73
2022/08/21 10:50:53;;;;;;;7.13;3.87;;;26.20;99.90;;;;;;4993455;28;20452;-73
2022/08/21 10:53:37;;;;;;;7.00;4.10;;;26.20;99.90;;;;;;4993268;28;20437;-73
2022/08/21 10:56:14;;;;;;;6.13;3.43;;;26.30;99.90;;;;;;4992641;28;20871;-73
2022/08/21 10:58:50;;;;;;;6.17;4.13;;;26.40;99.90;;;;;;4993295;28;20443;-73
2022/08/21 11:01:23;;;;;;;6.50;4.00;;;28.00;99.90;;;;;;4993138;28;20503;-73
2022/08/21 11:03:55;;;;;;;8.27;3.63;;;28.20;99.90;;;;;;4993552;28;20795;-73
2022/08/21 11:06:25;;;;;;;7.77;3.70;;;28.10;99.90;;;;;;4992883;28;20472;-73
2022/08/21 11:08:57;;;;;;;6.67;3.97;;;29.40;99.90;;;;;;4993341;28;20466;-73
2022/08/21 11:11:28;;;;;;;7.40;3.33;;;29.10;99.90;;;;;;4993114;28;20510;-73
2022/08/21 11:14:00;;;;;;;10.63;3.83;;;30.30;99.90;;;;;;4993325;28;20448;-73
2022/08/21 11:16:37;;;;;;;8.90;4.00;;;30.10;99.90;;;;;;4992082;28;20872;-73
2022/08/21 11:19:11;;;;;;;5.67;3.70;;;29.70;99.90;;;;;;4992996;28;20447;-73
2022/08/21 11:21:43;;;;;;;9.90;3.60;;;29.30;99.90;;;;;;4993031;28;20439;-73
2022/08/21 11:24:22;;;;;;;5.33;3.00;;;29.00;99.90;;;;;;4994103;28;20848;-73
2022/08/21 11:26:55;;;;;;;5.13;3.17;;;29.10;99.90;;;;;;4994139;28;20498;-73
2022/08/21 11:29:28;;;;;;;4.40;2.83;;;29.30;99.90;;;;;;4994108;28;20496;-73
2022/08/21 11:32:09;;;;;;;6.93;3.30;;;29.50;99.90;;;;;;4993439;28;20447;-73
2022/08/21 11:34:48;;;;;;;6.80;3.20;;;29.80;99.90;;;;;;4992605;28;20466;-73
2022/08/21 11:37:24;;;;;;;4.20;2.90;;;29.60;99.90;;;;;;4992574;28;20487;-73
2022/08/21 11:39:58;;;;;;;6.77;3.40;;;29.60;99.90;;;;;;4992678;28;20470;-73
2022/08/21 11:42:36;;;;;;;5.43;3.00;;;29.50;99.90;;;;;;4992608;28;20974;-73
2022/08/21 11:45:15;;;;;;;11.00;3.50;;;29.50;99.90;;;;;;4992110;28;20476;-73
2022/08/21 11:47:55;;;;;;;7.73;3.13;;;29.50;99.90;;;;;;4992801;28;20432;-73
2022/08/21 11:50:26;;;;;;;5.80;3.10;;;29.20;99.90;;;;;;4992597;28;20455;-73
2022/08/21 11:53:00;;;;;;;5.37;2.70;;;29.10;99.90;;;;;;4992470;28;20917;-73
2022/08/21 11:55:32;;;;;;;4.40;3.03;;;29.10;99.90;;;;;;4992386;28;20480;-73
2022/08/21 11:58:05;;;;;;;5.30;3.20;;;29.20;99.90;;;;;;4992475;28;20432;-73
2022/08/21 12:00:36;;;;;;;6.90;3.60;;;29.20;99.90;;;;;;4992339;28;20447;-73
2022/08/21 12:03:09;;;;;;;5.07;3.13;;;29.30;99.90;;;;;;4992402;28;20440;-73
2022/08/21 12:05:41;;;;;;;9.53;3.40;;;29.30;99.90;;;;;;4992196;28;20471;-73
2022/08/21 12:08:13;;;;;;;7.70;3.20;;;29.40;99.90;;;;;;4992619;28;20432;-73
2022/08/21 12:10:43;;;;;;;5.83;2.97;;;29.40;99.90;;;;;;4992596;28;20435;-73
2022/08/21 12:13:26;;;;;;;4.13;2.60;;;29.50;99.90;;;;;;4992144;28;20794;-73
2022/08/21 12:16:06;;;;;;;4.80;3.00;;;29.50;99.90;;;;;;4991921;28;20483;-73
2022/08/21 12:18:33;;;;;;;4.93;2.60;;;29.30;99.90;;;;;;4992283;28;20538;-73
2022/08/21 12:21:17;;;;;;;7.97;3.57;;;29.30;99.90;;;;;;4992510;28;20466;-73
2022/08/21 12:23:47;;;;;;;3.53;2.70;;;29.30;99.90;;;;;;4992185;28;20994;-73
2022/08/21 12:26:34;;;;;;;9.03;3.40;;;29.40;99.90;;;;;;4992243;28;20606;-73
2022/08/21 12:29:08;;;;;;;6.70;3.13;;;29.60;99.90;;;;;;4996243;28;20463;-73
2022/08/21 12:31:36;;;;;;;6.80;3.13;;;29.50;99.10;;;;;;4996021;28;20452;-73
2022/08/21 12:34:06;;;;;;;7.57;3.27;;;29.50;99.90;;;;;;4995498;28;20452;-73
2022/08/21 12:36:43;;;;;;;4.17;2.73;;;29.40;99.90;;;;;;4995983;28;20491;-73
2022/08/21 12:39:18;;;;;;;6.43;4.57;;;29.40;99.90;;;;;;4995900;28;20466;-73
2022/08/21 12:41:51;;;;;;;4.50;2.83;;;29.40;99.90;;;;;;4995817;28;20915;-73
2022/08/21 12:44:24;;;;;;;6.83;2.80;;;29.30;99.90;;;;;;4995225;28;20509;-73
2022/08/21 12:46:57;;;;;;;5.63;3.47;;;29.20;99.90;;;;;;4995685;28;20476;-73
2022/08/21 12:49:31;;;;;;;8.37;3.40;;;29.20;99.90;;;;;;4995694;28;20795;-73
2022/08/21 12:52:03;;;;;;;6.93;3.27;;;29.20;99.90;;;;;;4995718;28;20464;-73
2022/08/21 12:54:32;;;;;;;4.90;2.80;;;29.30;99.90;;;;;;4995501;28;20447;-73
2022/08/21 12:57:01;;;;;;;9.47;3.10;;;29.30;99.90;;;;;;4995541;28;20506;-73
2022/08/21 12:59:29;;;;;;;5.27;2.87;;;29.30;99.40;;;;;;4995787;28;20459;-73
2022/08/21 13:01:59;;;;;;;8.97;3.30;;;29.30;99.90;;;;;;4995161;28;20963;-73
2022/08/21 13:04:34;;;;;;;4.73;2.80;;;29.30;99.80;;;;;;4995401;28;20459;-73
2022/08/21 13:07:01;;;;;;;9.80;3.63;;;29.30;99.70;;;;;;4995572;28;20455;-73
2022/08/21 13:09:31;;;;;;;9.20;2.90;;;29.20;99.50;;;;;;4995743;28;20556;-74
2022/08/21 13:11:59;;;;;;;5.63;2.60;;;29.00;96.90;;;;;;4995668;28;20837;-73
2022/08/21 13:14:31;;;;;;;3.90;2.70;;;28.90;97.00;;;;;;4995252;28;20459;-73
2022/08/21 13:17:01;;;;;;;6.13;3.20;;;28.90;97.60;;;;;;4994911;28;20503;-73
2022/08/21 13:19:29;;;;;;;7.47;2.80;;;28.90;95.90;;;;;;4995083;28;20836;-73
2022/08/21 13:21:56;;;;;;;4.27;2.60;;;28.90;94.60;;;;;;4995276;28;20521;-73
2022/08/21 13:24:26;;;;;;;6.60;3.03;;;28.90;96.50;;;;;;4994878;28;20460;-73
2022/08/21 13:26:54;;;;;;;4.70;3.10;;;28.90;95.10;;;;;;4995147;28;20855;-73
2022/08/21 13:29:23;;;;;;;5.67;3.10;;;29.10;96.40;;;;;;4994828;28;20546;-73
2022/08/21 13:31:53;;;;;;;5.93;2.60;;;29.10;95.20;;;;;;4995029;28;20464;-73
2022/08/21 13:34:30;;;;;;;6.53;3.07;;;29.20;95.60;;;;;;4994875;28;20830;-73
2022/08/21 13:36:59;;;;;;;6.00;2.93;;;29.30;94.70;;;;;;4994861;28;20495;-73
2022/08/21 13:39:27;;;;;;;4.50;2.83;;;29.30;94.70;;;;;;4994406;28;20456;-73
2022/08/21 13:41:57;;;;;;;7.73;2.67;;;29.20;95.80;;;;;;4994926;28;20458;-74
2022/08/21 13:44:34;;;;;;;7.17;3.20;;;29.10;96.10;;;;;;4994732;28;20519;-73
2022/08/21 13:47:04;;;;;;;8.20;2.70;;;29.20;96.40;;;;;;4995060;28;20795;-73
2022/08/21 13:49:35;;;;;;;4.50;2.50;;;29.10;96.10;;;;;;4994745;28;20462;-73
2022/08/21 13:52:02;;;;;;;5.70;3.00;;;29.10;98.50;;;;;;4994641;28;20460;-73
2022/08/21 13:54:37;;;;;;;8.10;3.90;;;29.30;97.00;;;;;;4994469;28;20462;-73
2022/08/21 13:57:04;;;;;;;8.10;2.83;;;29.40;98.30;;;;;;4994457;28;20484;-73
2022/08/21 13:59:33;;;;;;;3.70;2.93;;;29.40;94.80;;;;;;4994385;28;20974;-73
2022/08/21 14:02:02;;;;;;;5.83;2.97;;;29.40;95.90;;;;;;4994336;28;20460;-73
2022/08/21 14:04:36;;;;;;;5.03;2.47;;;29.50;94.90;;;;;;4994510;28;20523;-73
2022/08/21 14:07:14;;;;;;;5.90;2.67;;;29.60;92.90;;;;;;4994259;28;20940;-73
2022/08/21 14:09:43;;;;;;;5.60;2.60;;;29.50;94.10;;;;;;4994239;28;20502;-73
2022/08/21 14:12:16;;;;;;;5.07;3.00;;;29.50;93.60;;;;;;4994330;28;20820;-73
2022/08/21 14:14:45;;;;;;;3.33;2.27;;;29.50;92.00;;;;;;4993875;28;20439;-73
2022/08/21 14:17:15;;;;;;;5.60;2.50;;;29.30;93.90;;;;;;4993998;28;20990;-73
2022/08/21 14:19:46;;;;;;;5.00;2.37;;;29.40;95.40;;;;;;4994441;28;20546;-73
2022/08/21 14:22:29;;;;;;;6.23;2.50;;;29.50;92.80;;;;;;4994432;28;21033;-73
2022/08/21 14:25:02;;;;;;;4.03;2.53;;;29.50;91.00;;;;;;4994426;28;20566;-73
2022/08/21 14:27:31;;;;;;;5.13;2.10;;;29.60;92.30;;;;;;4994798;28;20443;-73
2022/08/21 14:30:04;;;;;;;3.70;2.80;;;29.60;91.50;;;;;;4994426;28;20463;-73
2022/08/21 14:32:38;;;;;;;5.50;2.70;;;29.60;91.60;;;;;;4994274;28;20931;-73
2022/08/21 14:35:07;;;;;;;4.30;2.50;;;29.60;91.30;;;;;;4994150;28;20494;-73
2022/08/21 14:37:35;;;;;;;4.93;2.60;;;29.60;91.30;;;;;;4993907;28;20607;-73
2022/08/21 14:40:02;;;;;;;3.90;2.93;;;29.70;91.80;;;;;;4993860;28;20920;-73
2022/08/21 14:42:29;;;;;;;5.77;2.70;;;29.60;91.10;;;;;;4993908;28;20462;-73
2022/08/21 14:45:01;;;;;;;3.57;2.33;;;29.50;90.70;;;;;;4993169;28;20475;-73
2022/08/21 14:47:29;;;;;;;4.63;2.47;;;29.30;90.20;;;;;;4993852;28;20447;-73
2022/08/21 14:49:56;;;;;;;4.27;2.73;;;29.30;91.90;;;;;;4993148;28;20456;-73
2022/08/21 14:52:24;;;;;;;5.90;2.77;;;29.40;91.70;;;;;;4993347;28;20837;-73
2022/08/21 14:54:51;;;;;;;5.73;2.70;;;29.40;91.70;;;;;;4993133;28;20538;-74
2022/08/21 14:57:18;;;;;;;3.80;2.77;;;29.50;91.20;;;;;;4993248;28;20495;-74
2022/08/21 14:59:45;;;;;;;6.30;3.07;;;29.50;90.50;;;;;;4993133;28;20971;-74
2022/08/21 15:02:14;;;;;;;4.73;2.40;;;29.60;90.70;;;;;;4993436;28;20464;-74
2022/08/21 15:04:41;;;;;;;4.60;2.20;;;29.60;88.60;;;;;;4993167;28;20470;-75
2022/08/21 15:07:13;;;;;;;4.10;2.23;;;29.70;87.50;;;;;;4993276;28;21047;-74
2022/08/21 15:09:42;;;;;;;4.47;2.80;;;29.70;90.00;;;;;;4993512;28;20456;-74
2022/08/21 15:12:09;;;;;;;3.47;2.57;;;29.70;89.90;;;;;;4993148;28;20466;-74
2022/08/21 15:14:40;;;;;;;4.03;2.50;;;29.70;88.60;;;;;;4992658;28;21011;-74
2022/08/21 15:17:07;;;;;;;3.87;2.77;;;29.80;86.80;;;;;;4993169;28;20491;-74
2022/08/21 15:19:35;;;;;;;4.53;2.27;;;29.80;90.10;;;;;;4993153;28;20949;-75
2022/08/21 15:22:02;;;;;;;3.63;2.10;;;29.80;85.30;;;;;;4993317;28;20602;-74
2022/08/21 15:24:28;;;;;;;7.10;2.47;;;29.80;84.80;;;;;;4992762;28;20474;-74
2022/08/21 15:26:59;;;;;;;3.50;2.23;;;29.80;86.20;;;;;;4993152;28;20458;-74
2022/08/21 15:29:26;;;;;;;4.13;2.40;;;29.90;88.70;;;;;;4993483;28;20440;-74
2022/08/21 15:31:56;;;;;;;4.77;2.80;;;30.00;85.20;;;;;;4993700;28;20458;-74
2022/08/21 15:34:24;;;;;;;5.90;2.87;;;29.90;84.70;;;;;;4993175;28;20539;-74
2022/08/21 15:36:53;;;;;;;3.47;2.50;;;30.00;84.40;;;;;;4993217;28;21037;-74
2022/08/21 15:39:20;;;;;;;4.70;2.57;;;29.90;86.40;;;;;;4993372;28;20456;-74
2022/08/21 15:41:47;;;;;;;5.80;2.40;;;29.90;83.70;;;;;;4992759;28;20825;-74
2022/08/21 15:44:16;;;;;;;5.27;2.37;;;29.90;81.50;;;;;;4992475;28;21128;-74
2022/08/21 15:46:45;;;;;;;3.50;2.30;;;29.90;80.10;;;;;;4992666;28;20487;-74
2022/08/21 15:49:12;;;;;;;3.27;2.10;;;29.80;83.70;;;;;;4993379;28;20460;-74
2022/08/21 15:51:38;;;;;;;3.97;2.33;;;29.80;83.60;;;;;;4992887;28;20841;-74
2022/08/21 15:54:05;;;;;;;2.93;2.50;;;29.80;85.10;;;;;;4992737;28;20562;-74
2022/08/21 15:56:36;;;;;;;5.00;2.40;;;29.90;83.30;;;;;;4992921;28;20554;-74
2022/08/21 15:59:07;;;;;;;6.50;3.13;;;30.00;85.00;;;;;;4992712;28;20831;-74
2022/08/21 16:01:37;;;;;;;4.90;2.70;;;30.00;84.20;;;;;;4992239;28;20460;-74
2022/08/21 16:04:05;;;;;;;8.43;2.50;;;30.00;85.60;;;;;;4992691;28;20498;-74
2022/08/21 16:06:32;;;;;;;3.10;2.27;;;30.00;85.10;;;;;;4992432;28;20550;-74
2022/08/21 16:08:59;;;;;;;2.90;2.40;;;29.90;85.00;;;;;;4992894;28;20456;-74
2022/08/21 16:11:28;;;;;;;5.10;2.67;;;30.00;86.20;;;;;;4993026;28;20487;-74
2022/08/21 16:13:55;;;;;;;3.37;2.53;;;30.00;84.20;;;;;;4993319;28;20451;-74
2022/08/21 16:16:24;;;;;;;4.73;2.77;;;30.00;84.00;;;;;;5031444;23;20508;-79
2022/08/21 16:18:53;;;;;;;5.80;3.23;;;29.90;82.50;;;;;;5017371;28;20490;-79
2022/08/21 16:21:20;;;;;;;5.27;2.60;;;29.90;84.60;;;;;;5017570;28;20547;-78
2022/08/21 16:23:47;;;;;;;3.30;2.30;;;29.90;86.80;;;;;;5017504;28;20497;-79
2022/08/21 16:26:15;;;;;;;6.30;2.90;;;29.90;84.30;;;;;;5017272;28;20886;-78
2022/08/21 16:28:45;;;;;;;51.63;46.33;;;29.90;85.00;;;;;;5018115;28;20457;-79
2022/08/21 16:31:12;;;;;;;4.87;2.70;;;29.90;88.10;;;;;;5017292;28;20459;-79
2022/08/21 16:33:43;;;;;;;7.17;3.10;;;29.90;85.50;;;;;;5017465;28;21025;-79
2022/08/21 16:36:12;;;;;;;4.83;2.70;;;29.80;85.50;;;;;;5016751;28;20982;-79
2022/08/21 16:38:42;;;;;;;3.57;2.23;;;29.80;85.30;;;;;;5017418;28;20581;-79
2022/08/21 16:41:12;;;;;;;3.83;2.47;;;29.70;83.80;;;;;;5017229;28;20558;-78
2022/08/21 16:43:41;;;;;;;3.70;2.50;;;29.60;83.70;;;;;;5017521;28;20506;-78
2022/08/21 16:46:10;;;;;;;4.40;2.67;;;29.60;82.70;;;;;;5016419;28;20475;-79
2022/08/21 16:48:37;;;;;;;3.83;2.50;;;29.50;88.30;;;;;;5016999;28;20455;-79
2022/08/21 16:51:04;;;;;;;6.17;2.43;;;29.50;87.70;;;;;;5017385;28;20463;-78
2022/08/21 16:53:33;;;;;;;4.50;2.70;;;29.30;84.30;;;;;;5017526;28;20455;-78
2022/08/21 16:56:00;;;;;;;8.13;3.50;;;29.20;85.20;;;;;;5016743;28;20495;-79
2022/08/21 16:58:30;;;;;;;6.87;3.10;;;29.10;88.30;;;;;;5016637;28;20490;-79
2022/08/21 17:00:58;;;;;;;8.90;3.30;;;29.00;88.10;;;;;;5016934;28;20446;-79
2022/08/21 17:03:31;;;;;;;5.50;2.80;;;29.00;90.30;;;;;;5016956;28;20430;-79